Time;durP1;ratioP1;P1;durP2;ratioP2;P2;SDS_P1;SDS_P2;PMS_P1;PMS_P2;Temp;Humidity;BMP_temperature;BMP_pressure;BME280_temperature;BME280_humidity;BME280_pressure;Samples;Min_cycle;Max_cycle;Signal;HPM_P1;HPM_P2
2023/04/14 00:01:32;;;;;;;24.07;7.90;;;;;;;42.34;37.23;100886.34;6159352;23;20391;-87
2023/04/14 00:03:58;;;;;;;16.93;6.97;;;;;;;42.44;36.47;100891.38;6159533;23;20381;-87
2023/04/14 00:06:26;;;;;;;23.10;7.60;;;;;;;42.32;36.70;100864.88;6159156;23;20471;-87
2023/04/14 00:08:52;;;;;;;20.37;7.67;;;;;;;42.55;36.48;100880.84;6159166;23;20389;-87
2023/04/14 00:11:18;;;;;;;14.60;6.83;;;;;;;42.61;36.50;100876.78;6159236;23;20733;-87
2023/04/14 00:13:44;;;;;;;30.70;7.93;;;;;;;42.50;36.81;100870.13;6159222;23;20387;-87
2023/04/14 00:16:11;;;;;;;28.23;6.80;;;;;;;42.63;36.38;100866.31;6159210;23;20415;-87
2023/04/14 00:18:37;;;;;;;23.73;7.17;;;;;;;42.57;36.66;100873.09;6158997;23;20724;-88
2023/04/14 00:21:03;;;;;;;18.17;6.50;;;;;;;42.43;36.34;100859.78;6159059;23;20440;-88
2023/04/14 00:23:29;;;;;;;20.80;7.43;;;;;;;42.46;36.69;100844.66;6158549;23;20403;-87
2023/04/14 00:25:55;;;;;;;15.10;5.83;;;;;;;42.53;36.13;100847.63;6159087;23;20503;-88
2023/04/14 00:28:21;;;;;;;14.23;6.40;;;;;;;42.33;36.50;100843.84;6158659;23;20404;-89
2023/04/14 00:30:47;;;;;;;20.10;7.10;;;;;;;42.29;37.08;100838.25;6158996;23;20391;-87
2023/04/14 00:33:13;;;;;;;22.77;6.90;;;;;;;42.27;37.01;100818.72;6158580;23;20380;-87
2023/04/14 00:35:39;;;;;;;22.77;7.93;;;;;;;42.45;37.06;100827.50;6158591;23;20156;-87
2023/04/14 00:38:05;;;;;;;19.47;6.10;;;;;;;42.46;36.89;100820.13;6158992;23;20403;-87
2023/04/14 00:40:31;;;;;;;17.00;7.47;;;;;;;42.14;36.51;100826.06;6158661;23;20435;-87
2023/04/14 00:42:57;;;;;;;23.67;6.83;;;;;;;42.18;36.48;100818.03;6158435;23;20227;-87
2023/04/14 00:45:24;;;;;;;20.50;6.90;;;;;;;42.30;36.84;100828.19;6159067;23;20380;-87
2023/04/14 00:47:50;;;;;;;15.20;5.90;;;;;;;42.51;36.63;100817.97;6158998;23;20443;-89
2023/04/14 00:50:17;;;;;;;26.77;6.67;;;;;;;42.14;36.80;100806.97;6158737;23;20452;-89
2023/04/14 00:52:46;;;;;;;23.17;9.43;;;;;;;42.32;36.70;100804.88;6158960;23;20404;-89
2023/04/14 00:55:13;;;;;;;19.93;6.33;;;;;;;42.53;36.91;100810.25;6158642;23;20400;-88
2023/04/14 00:57:39;;;;;;;30.57;7.57;;;;;;;42.35;36.98;100792.50;6158694;23;20871;-87
2023/04/14 01:00:06;;;;;;;18.67;9.27;;;;;;;42.31;36.63;100797.84;6185344;23;20414;-87
2023/04/14 01:02:32;;;;;;;13.80;6.50;;;;;;;42.43;36.57;100788.09;6157601;23;20713;-88
2023/04/14 01:04:58;;;;;;;30.43;7.43;;;;;;;42.47;36.90;100789.78;6158656;23;20365;-88
2023/04/14 01:07:27;;;;;;;17.60;7.00;;;;;;;42.24;37.08;100773.09;6158583;23;20380;-87
2023/04/14 01:09:56;;;;;;;18.20;6.90;;;;;;;42.35;37.16;100781.59;6158634;23;20375;-88
2023/04/14 01:12:55;;;;;;;25.23;10.40;;;;;;;42.45;37.47;100786.63;6158629;23;20407;-88
2023/04/14 01:15:39;;;;;;;18.53;6.80;;;;;;;42.43;36.96;100769.00;6158214;23;20772;-87
2023/04/14 01:18:18;;;;;;;21.23;7.00;;;;;;;42.43;37.30;100777.97;6158307;23;20734;-87
2023/04/14 01:20:49;;;;;;;23.50;7.83;;;;;;;42.30;37.73;100779.91;6158500;23;20428;-87
2023/04/14 01:23:28;;;;;;;18.50;6.10;;;;;;;42.21;37.03;100773.75;6158274;23;20400;-88
2023/04/14 01:26:15;;;;;;;15.50;6.93;;;;;;;42.24;37.04;100775.81;6158418;23;20396;-87
2023/04/14 01:29:05;;;;;;;13.73;6.07;;;;;;;42.28;36.90;100776.69;6185232;23;20357;-87
2023/04/14 01:31:44;;;;;;;16.67;5.90;;;;;;;42.14;37.17;100751.66;6158601;23;20378;-87
2023/04/14 01:34:13;;;;;;;13.70;6.03;;;;;;;42.28;37.07;100762.28;6158437;23;20454;-86
2023/04/14 01:36:43;;;;;;;16.90;5.90;;;;;;;42.04;36.54;100763.78;6158360;23;20472;-87
2023/04/14 01:39:15;;;;;;;14.97;5.63;;;;;;;42.14;36.69;100760.63;6157891;23;20438;-87
2023/04/14 01:41:47;;;;;;;19.63;8.00;;;;;;;42.06;36.77;100758.81;6158321;23;20426;-87
2023/04/14 01:44:17;;;;;;;12.60;5.90;;;;;;;42.19;36.92;100756.16;6158358;23;20384;-87
2023/04/14 01:46:45;;;;;;;19.60;6.53;;;;;;;42.26;36.34;100762.63;6158353;23;20380;-87
2023/04/14 01:49:12;;;;;;;16.77;6.30;;;;;;;41.91;37.37;100758.66;6158258;23;20377;-87
2023/04/14 01:51:41;;;;;;;21.83;6.10;;;;;;;42.16;36.67;100768.50;6158368;23;20383;-87
2023/04/14 01:54:09;;;;;;;26.40;6.27;;;;;;;42.15;36.83;100753.25;6158182;23;20902;-87
2023/04/14 01:56:39;;;;;;;17.93;7.57;;;;;;;41.92;37.27;100754.78;6158634;23;20736;-87
2023/04/14 01:59:05;;;;;;;14.97;6.50;;;;;;;42.02;37.04;100748.91;6184005;23;20419;-87
2023/04/14 02:01:33;;;;;;;25.17;8.90;;;;;;;41.97;36.86;100732.78;6158402;23;20384;-87
2023/04/14 02:04:01;;;;;;;17.67;7.47;;;;;;;42.08;36.62;100750.31;6158171;23;20868;-88
2023/04/14 02:06:30;;;;;;;17.80;7.17;;;;;;;42.19;36.25;100750.69;6158217;23;20384;-87
2023/04/14 02:09:04;;;;;;;20.23;5.67;;;;;;;42.20;36.27;100746.84;6158196;23;20404;-87
2023/04/14 02:11:32;;;;;;;28.40;8.50;;;;;;;42.07;36.53;100746.00;6158030;23;20384;-87
2023/04/14 02:14:00;;;;;;;19.60;7.43;;;;;;;41.66;37.35;100742.19;6158212;23;20798;-88
2023/04/14 02:16:27;;;;;;;17.30;6.30;;;;;;;41.88;36.70;100737.53;6158021;23;20376;-87
2023/04/14 02:18:53;;;;;;;21.57;6.30;;;;;;;41.97;36.75;100727.34;6158090;23;20451;-87
2023/04/14 02:21:23;;;;;;;20.43;7.10;;;;;;;42.17;36.45;100729.22;6158261;23;20872;-87
2023/04/14 02:23:49;;;;;;;12.83;6.70;;;;;;;42.16;36.57;100721.34;6157343;23;20451;-87
2023/04/14 02:26:20;;;;;;;23.37;6.47;;;;;;;41.83;36.74;100725.72;6158191;23;20412;-87
2023/04/14 02:29:01;;;;;;;17.90;6.93;;;;;;;41.90;36.85;100730.63;6158116;23;20912;-87
2023/04/14 02:31:32;;;;;;;16.80;5.80;;;;;;;42.13;36.28;100725.56;6159037;23;20446;-87
2023/04/14 02:34:02;;;;;;;17.93;7.53;;;;;;;41.76;36.81;100738.31;6160092;23;20871;-87
2023/04/14 02:36:33;;;;;;;22.30;7.07;;;;;;;41.52;38.02;100731.59;6159927;23;20395;-87
2023/04/14 02:39:03;;;;;;;20.10;7.10;;;;;;;41.95;37.20;100722.22;6159892;23;20466;-87
2023/04/14 02:41:30;;;;;;;15.77;7.00;;;;;;;41.99;37.19;100716.88;6160132;23;20448;-88
2023/04/14 02:44:16;;;;;;;14.93;5.70;;;;;;;42.00;37.30;100722.03;6159924;23;20860;-88
2023/04/14 02:46:48;;;;;;;14.37;6.10;;;;;;;42.10;36.97;100718.03;6160076;23;20418;-87
2023/04/14 02:49:15;;;;;;;17.43;6.43;;;;;;;42.19;36.70;100724.22;6159792;23;20382;-87
2023/04/14 02:51:44;;;;;;;14.63;5.60;;;;;;;42.08;36.96;100709.41;6160036;23;20402;-87
2023/04/14 02:54:12;;;;;;;15.43;6.03;;;;;;;42.01;37.24;100709.19;6159688;23;20404;-87
2023/04/14 02:56:39;;;;;;;14.20;6.60;;;;;;;42.17;36.96;100715.56;6159878;23;20408;-88
2023/04/14 02:59:06;;;;;;;16.07;6.23;;;;;;;42.20;36.84;100708.66;6159623;23;20939;-87
2023/04/14 03:01:33;;;;;;;13.20;5.63;;;;;;;42.06;37.26;100719.88;6159696;23;20380;-87
2023/04/14 03:04:00;;;;;;;14.93;5.17;;;;;;;42.25;36.61;100711.97;6159492;23;20955;-87
2023/04/14 03:06:27;;;;;;;15.03;6.77;;;;;;;42.30;36.57;100719.94;6159905;23;20375;-87
2023/04/14 03:08:55;;;;;;;15.47;7.10;;;;;;;42.09;36.93;100716.47;6159633;23;20442;-87
2023/04/14 03:11:22;;;;;;;33.63;8.73;;;;;;;42.09;37.15;100713.72;6159751;23;20404;-87
2023/04/14 03:13:53;;;;;;;11.27;5.57;;;;;;;42.05;37.55;100720.97;6159634;23;20414;-87
2023/04/14 03:16:20;;;;;;;10.70;5.57;;;;;;;41.93;37.70;100720.97;6159633;23;20716;-86
2023/04/14 03:18:49;;;;;;;13.80;6.40;;;;;;;42.03;37.48;100709.63;6159873;23;20404;-87
2023/04/14 03:21:18;;;;;;;16.33;7.80;;;;;;;42.12;37.17;100716.59;6159677;23;20415;-86
2023/04/14 03:23:45;;;;;;;20.20;10.07;;;;;;;42.09;37.41;100724.63;6154607;23;20452;-88
2023/04/14 03:26:17;;;;;;;17.80;6.97;;;;;;;42.12;37.41;100732.16;6156538;23;20395;-88
2023/04/14 03:28:46;;;;;;;21.30;7.30;;;;;;;42.00;37.43;100705.66;6154675;23;20452;-88
2023/04/14 03:31:15;;;;;;;12.30;5.93;;;;;;;42.07;37.25;100722.25;6154593;23;20401;-89
2023/04/14 03:33:45;;;;;;;19.03;6.50;;;;;;;42.16;37.12;100713.16;6154653;23;20377;-87
2023/04/14 03:36:11;;;;;;;17.67;7.93;;;;;;;42.30;37.11;100719.13;6154562;23;20885;-87
2023/04/14 03:38:38;;;;;;;12.87;6.10;;;;;;;42.27;37.22;100715.13;6154634;23;20393;-88
2023/04/14 03:41:08;;;;;;;17.77;6.00;;;;;;;42.20;37.25;100720.38;6153866;23;20515;-87
2023/04/14 03:43:35;;;;;;;15.30;6.27;;;;;;;42.15;37.29;100720.56;6154529;23;20385;-88
2023/04/14 03:46:04;;;;;;;21.47;8.07;;;;;;;42.10;36.97;100728.94;6155802;23;20397;-88
2023/04/14 03:48:35;;;;;;;17.80;6.20;;;;;;;42.10;37.31;100728.94;6154620;23;20880;-88
2023/04/14 03:51:05;;;;;;;15.30;8.47;;;;;;;42.16;37.22;100734.97;6154347;23;20486;-87
2023/04/14 03:53:35;;;;;;;17.20;6.47;;;;;;;42.09;37.37;100733.59;6154532;23;20385;-87
2023/04/14 03:56:03;;;;;;;16.37;6.03;;;;;;;42.02;37.06;100718.94;6154235;23;20413;-87
2023/04/14 03:58:30;;;;;;;13.60;7.33;;;;;;;42.00;37.52;100732.91;6156441;23;20837;-86
2023/04/14 04:00:58;;;;;;;15.97;8.17;;;;;;;42.03;37.48;100734.94;6154357;23;20416;-87
2023/04/14 04:03:25;;;;;;;19.50;8.60;;;;;;;42.09;37.50;100733.59;6153683;23;20492;-87
2023/04/14 04:05:52;;;;;;;18.83;6.53;;;;;;;42.06;37.80;100728.84;6154373;23;20388;-87
2023/04/14 04:08:19;;;;;;;19.67;7.83;;;;;;;42.07;37.33;100732.34;6154223;23;20373;-87
2023/04/14 04:10:47;;;;;;;33.53;8.93;;;;;;;42.06;37.49;100736.22;6156150;23;20405;-87
2023/04/14 04:13:16;;;;;;;15.40;8.23;;;;;;;42.17;37.74;100737.38;6153869;23;20405;-87
2023/04/14 04:15:44;;;;;;;17.40;8.60;;;;;;;42.31;37.24;100751.50;6153912;23;20381;-87
2023/04/14 04:18:15;;;;;;;19.00;8.90;;;;;;;42.16;37.45;100765.78;6154139;23;20742;-87
2023/04/14 04:20:42;;;;;;;24.23;8.23;;;;;;;42.10;37.53;100767.88;6154019;23;20432;-87
2023/04/14 04:23:10;;;;;;;13.53;6.70;;;;;;;42.10;37.58;100754.25;6153442;23;20484;-87
2023/04/14 04:25:38;;;;;;;25.40;7.53;;;;;;;42.10;37.58;100776.06;6153817;23;20792;-87
2023/04/14 04:28:04;;;;;;;28.53;8.43;;;;;;;42.04;38.00;100776.63;6153585;23;20448;-87
2023/04/14 04:30:32;;;;;;;15.20;8.00;;;;;;;42.04;37.66;100774.69;6154111;23;20377;-87
2023/04/14 04:33:01;;;;;;;18.90;7.90;;;;;;;42.03;36.99;100769.59;6153679;23;20408;-87
2023/04/14 04:35:28;;;;;;;30.93;11.07;;;;;;;41.99;37.71;100776.84;6154085;23;20385;-88
2023/04/14 04:37:55;;;;;;;18.03;10.80;;;;;;;41.83;37.64;100766.59;6153796;23;20409;-87
2023/04/14 04:40:21;;;;;;;21.47;11.37;;;;;;;42.00;37.68;100775.72;6154064;23;20437;-87
2023/04/14 04:42:47;;;;;;;15.77;9.00;;;;;;;41.85;37.87;100790.75;6153556;23;20413;-88
2023/04/14 04:45:27;;;;;;;19.80;9.40;;;;;;;41.98;37.84;100799.78;6153941;23;20381;-89
2023/04/14 04:47:53;;;;;;;24.00;12.00;;;;;;;42.11;37.59;100793.22;6153410;23;20384;-88
2023/04/14 04:50:19;;;;;;;25.90;10.40;;;;;;;42.03;37.48;100784.00;6153670;23;20471;-87
2023/04/14 04:52:45;;;;;;;19.67;11.23;;;;;;;42.05;37.22;100778.22;6153626;23;20718;-88
2023/04/14 04:55:11;;;;;;;25.83;13.37;;;;;;;42.07;37.31;100784.13;6153544;23;20408;-87
2023/04/14 04:57:37;;;;;;;18.67;10.90;;;;;;;41.86;37.49;100790.41;6153309;23;20467;-87
2023/04/14 05:00:04;;;;;;;23.97;11.07;;;;;;;42.00;37.55;100802.97;6153654;23;20429;-87
2023/04/14 05:02:30;;;;;;;28.47;11.97;;;;;;;42.02;37.16;100789.78;6153092;23;20385;-88
2023/04/14 05:04:56;;;;;;;19.93;12.43;;;;;;;42.09;37.06;100782.66;6153651;23;20467;-89
2023/04/14 05:07:22;;;;;;;29.40;13.43;;;;;;;42.16;37.05;100782.13;6153308;23;20842;-87
2023/04/14 05:09:48;;;;;;;14.10;10.70;;;;;;;42.15;37.05;100777.78;6153658;23;20955;-86
2023/04/14 05:12:14;;;;;;;19.50;11.40;;;;;;;42.07;37.19;100770.50;6153745;23;20385;-87
2023/04/14 05:14:41;;;;;;;23.33;14.07;;;;;;;41.82;37.55;100769.66;6153160;23;20392;-87
2023/04/14 05:17:08;;;;;;;21.63;11.70;;;;;;;41.89;37.65;100763.66;6153980;23;20417;-87
2023/04/14 05:19:34;;;;;;;22.40;11.20;;;;;;;41.93;37.29;100770.81;6153186;23;20484;-86
2023/04/14 05:22:00;;;;;;;18.93;12.20;;;;;;;41.83;37.47;100782.13;6151545;23;20385;-87
2023/04/14 05:24:26;;;;;;;32.13;13.00;;;;;;;41.61;37.71;100781.31;6168974;23;20438;-86
2023/04/14 05:26:52;;;;;;;24.60;13.33;;;;;;;41.94;37.27;100798.88;6157955;23;20475;-85
2023/04/14 05:29:18;;;;;;;30.50;12.80;;;;;;;41.90;37.93;100806.09;6158653;23;20381;-86
2023/04/14 05:31:46;;;;;;;22.03;13.43;;;;;;;41.68;37.89;100807.22;6158244;23;20383;-85
2023/04/14 05:34:13;;;;;;;24.60;13.37;;;;;;;41.85;37.56;100804.38;6182957;23;20384;-86
2023/04/14 05:36:40;;;;;;;29.13;14.43;;;;;;;41.79;37.54;100808.44;6158787;23;20432;-86
2023/04/14 05:39:06;;;;;;;25.53;12.87;;;;;;;41.64;38.25;100803.59;6158049;23;20782;-85
2023/04/14 05:41:32;;;;;;;24.00;13.87;;;;;;;41.69;37.68;100793.28;6158446;23;20901;-86
2023/04/14 05:43:57;;;;;;;28.50;13.33;;;;;;;41.68;37.40;100791.72;6157271;23;20415;-86
2023/04/14 05:46:23;;;;;;;21.47;13.17;;;;;;;41.77;37.50;100786.19;6155032;23;20372;-87
2023/04/14 05:48:49;;;;;;;21.13;12.83;;;;;;;41.79;37.26;100775.75;6156064;23;20160;-87
2023/04/14 05:51:15;;;;;;;28.00;13.80;;;;;;;41.85;37.24;100774.41;6157811;23;20376;-86
2023/04/14 05:53:41;;;;;;;30.93;14.93;;;;;;;41.93;37.24;100775.44;6155536;23;20384;-85
2023/04/14 05:56:10;;;;;;;28.60;15.53;;;;;;;41.95;37.26;100795.81;6158300;23;20434;-83
2023/04/14 05:58:36;;;;;;;23.33;13.80;;;;;;;41.83;37.35;100793.81;6155401;23;20404;-83
2023/04/14 06:01:02;;;;;;;21.00;12.10;;;;;;;41.79;37.33;100803.78;6157761;23;20478;-83
2023/04/14 06:03:29;;;;;;;26.70;15.47;;;;;;;41.78;37.40;100807.66;6157976;23;20388;-82
2023/04/14 06:05:55;;;;;;;30.00;13.27;;;;;;;41.78;37.36;100813.09;6182200;23;20490;-82
2023/04/14 06:08:21;;;;;;;27.90;14.73;;;;;;;41.77;37.19;100808.78;6184419;23;20372;-80
2023/04/14 06:10:47;;;;;;;24.80;13.57;;;;;;;41.82;37.17;100816.75;6182873;23;20627;-80
2023/04/14 06:13:15;;;;;;;24.33;13.57;;;;;;;41.80;37.15;100820.94;6158252;23;20913;-83
2023/04/14 15:31:05;;;;;;;22.17;8.10;;;;;;;45.47;30.43;100548.63;6137191;23;21077;-80
2023/04/14 15:33:30;;;;;;;16.23;8.23;;;;;;;45.69;30.16;100553.31;6184068;23;20400;-81
2023/04/14 15:35:56;;;;;;;24.17;9.93;;;;;;;45.53;29.91;100553.44;6184276;23;20390;-81
2023/04/14 15:38:22;;;;;;;21.03;9.10;;;;;;;45.60;29.80;100555.50;6185976;23;20263;-80
2023/04/14 15:40:48;;;;;;;28.53;9.50;;;;;;;45.61;30.38;100553.53;6184219;23;20423;-85
2023/04/14 15:43:17;;;;;;;21.60;8.57;;;;;;;45.67;30.15;100560.28;6184562;23;20156;-84
2023/04/14 15:45:43;;;;;;;25.27;10.07;;;;;;;45.75;29.92;100565.56;6184008;23;20416;-81
2023/04/14 15:48:10;;;;;;;22.30;10.27;;;;;;;45.44;29.93;100563.88;6184288;23;20395;-79
2023/04/14 15:50:36;;;;;;;20.63;8.60;;;;;;;45.30;30.48;100560.84;6184577;23;20391;-83
2023/04/14 15:53:07;;;;;;;28.13;13.30;;;;;;;45.41;30.33;100553.63;6183439;23;20403;-83
2023/04/14 15:55:34;;;;;;;24.63;13.37;;;;;;;45.26;30.70;100562.75;6185540;23;20427;-83
2023/04/14 15:58:00;;;;;;;33.83;15.03;;;;;;;45.15;30.93;100553.56;6183805;23;20727;-83
2023/04/14 16:00:26;;;;;;;26.20;13.97;;;;;;;45.28;30.36;100550.25;6183564;23;20820;-83
2023/04/14 16:02:52;;;;;;;33.40;11.87;;;;;;;45.41;30.56;100555.59;6184070;23;20391;-83
2023/04/14 16:05:18;;;;;;;22.77;9.37;;;;;;;45.31;30.13;100565.19;6183532;23;20388;-83
2023/04/14 16:07:44;;;;;;;24.13;9.43;;;;;;;45.38;30.21;100562.59;6183878;23;20156;-82
2023/04/14 16:10:10;;;;;;;23.03;9.60;;;;;;;45.48;29.78;100561.97;6183113;23;20384;-83
2023/04/14 16:12:36;;;;;;;25.20;8.50;;;;;;;45.42;29.90;100568.91;6183797;23;20844;-82
2023/04/14 16:15:05;;;;;;;20.50;7.30;;;;;;;45.40;30.34;100575.91;6183908;23;20392;-82
2023/04/14 16:17:31;;;;;;;18.33;7.40;;;;;;;45.47;30.17;100573.28;6183105;23;20380;-82
2023/04/14 16:19:57;;;;;;;31.23;8.70;;;;;;;45.34;30.09;100569.13;6184317;23;20426;-82
2023/04/14 16:22:24;;;;;;;24.40;9.30;;;;;;;45.35;30.01;100568.00;6183754;23;20395;-83
2023/04/14 16:24:50;;;;;;;17.70;7.87;;;;;;;45.11;30.16;100582.81;6183825;23;20379;-83
2023/04/14 16:27:16;;;;;;;14.27;7.93;;;;;;;44.98;30.54;100579.44;6185912;23;20871;-83
2023/04/14 16:29:42;;;;;;;27.97;10.57;;;;;;;44.64;31.40;100576.44;6183608;23;20376;-83
2023/04/14 16:32:08;;;;;;;22.00;9.03;;;;;;;44.66;31.14;100584.25;6161399;23;20445;-83
2023/04/14 16:34:34;;;;;;;28.73;10.93;;;;;;;44.80;31.48;100590.00;6154193;23;20157;-83
2023/04/14 16:37:00;;;;;;;23.60;8.93;;;;;;;44.66;31.88;100601.47;6153875;23;20849;-83
2023/04/14 16:39:26;;;;;;;24.07;7.70;;;;;;;44.55;31.42;100608.63;6155284;23;20837;-82
2023/04/14 16:41:52;;;;;;;17.20;8.87;;;;;;;44.53;31.70;100610.94;6153788;23;20419;-82
2023/04/14 16:44:18;;;;;;;19.70;9.30;;;;;;;44.40;31.86;100612.22;6154163;23;20412;-83
2023/04/14 16:46:44;;;;;;;21.57;10.00;;;;;;;44.46;32.29;100630.72;6153849;23;20598;-82
2023/04/14 16:49:10;;;;;;;19.83;9.43;;;;;;;44.54;31.98;100628.13;6153492;23;20393;-82
2023/04/14 16:51:36;;;;;;;22.80;8.97;;;;;;;44.55;32.14;100635.97;6153499;23;20761;-82
2023/04/14 16:54:03;;;;;;;24.07;10.10;;;;;;;44.30;31.78;100629.97;6155656;23;20468;-82
2023/04/14 16:56:29;;;;;;;18.37;8.80;;;;;;;44.05;32.13;100639.50;6153721;23;20393;-83
2023/04/14 16:58:55;;;;;;;20.67;10.43;;;;;;;44.23;32.46;100657.94;6155642;23;20397;-83
2023/04/14 17:01:21;;;;;;;25.97;8.00;;;;;;;44.00;32.91;100664.38;6153549;23;20788;-80
2023/04/14 17:03:47;;;;;;;20.50;8.40;;;;;;;43.94;32.99;100672.84;6153853;23;20393;-82
2023/04/14 17:06:14;;;;;;;27.30;11.30;;;;;;;43.83;32.98;100674.53;6153867;23;20395;-80
2023/04/14 17:08:40;;;;;;;22.50;11.20;;;;;;;43.86;33.17;100670.28;6153920;23;20157;-85
2023/04/14 17:11:06;;;;;;;27.00;9.90;;;;;;;43.84;33.13;100686.25;6153410;23;20393;-79
2023/04/14 17:13:32;;;;;;;21.57;9.87;;;;;;;43.86;33.16;100684.75;6153187;23;20409;-80
2023/04/14 17:15:58;;;;;;;18.47;9.37;;;;;;;43.65;33.49;100689.66;6153242;23;20153;-80
2023/04/14 17:18:24;;;;;;;19.50;9.60;;;;;;;43.74;33.59;100692.19;6154294;23;20381;-82
2023/04/14 17:20:50;;;;;;;22.20;8.03;;;;;;;43.87;33.29;100700.00;6153011;23;20441;-85
2023/04/14 17:23:19;;;;;;;20.90;9.13;;;;;;;43.81;33.18;100706.06;6153760;23;20393;-79
2023/04/14 17:25:46;;;;;;;37.57;10.43;;;;;;;43.79;33.29;100709.16;6129477;23;20397;-81
2023/04/14 17:28:12;;;;;;;20.60;9.67;;;;;;;43.90;33.54;100712.19;6151598;23;20389;-81
2023/04/14 17:30:39;;;;;;;30.10;12.83;;;;;;;44.01;32.92;100726.88;6154424;23;20353;-79
2023/04/14 17:33:09;;;;;;;23.67;11.10;;;;;;;43.99;32.98;100723.72;6153340;23;20396;-80
2023/04/14 17:35:36;;;;;;;18.80;10.50;;;;;;;43.95;33.02;100729.09;6129845;23;20396;-78
2023/04/14 17:38:05;;;;;;;22.73;9.47;;;;;;;43.92;32.92;100742.66;6153448;23;20443;-79
2023/04/14 17:40:31;;;;;;;27.37;11.60;;;;;;;43.86;33.28;100755.78;6152932;23;20446;-79
2023/04/14 17:42:57;;;;;;;28.47;12.30;;;;;;;43.88;33.33;100753.50;6154162;23;20429;-82
2023/04/14 17:45:24;;;;;;;31.13;10.93;;;;;;;43.81;33.06;100749.78;6152494;23;20385;-79
2023/04/14 17:47:52;;;;;;;25.03;11.10;;;;;;;43.83;33.51;100739.28;6154840;23;20362;-78
2023/04/14 17:50:19;;;;;;;26.17;10.33;;;;;;;43.77;33.42;100740.66;6128897;23;20440;-79
2023/04/14 17:52:46;;;;;;;29.60;11.47;;;;;;;43.76;33.67;100744.53;6152769;23;20825;-79
2023/04/14 17:55:16;;;;;;;25.13;9.10;;;;;;;43.68;33.62;100754.50;6153283;23;20909;-83
2023/04/14 17:57:44;;;;;;;34.00;13.03;;;;;;;43.34;34.03;100743.00;6127911;23;20396;-84
2023/04/14 18:00:10;;;;;;;18.63;8.13;;;;;;;43.57;33.66;100743.28;6153011;23;20433;-82
2023/04/14 18:02:38;;;;;;;25.57;11.97;;;;;;;43.35;34.46;100758.25;6152410;23;20389;-82
2023/04/14 18:05:09;;;;;;;29.63;12.20;;;;;;;43.31;34.15;100762.00;6153727;23;20365;-78
2023/04/14 18:07:36;;;;;;;32.00;11.83;;;;;;;43.36;34.48;100762.56;6155095;23;20384;-78
2023/04/14 18:10:03;;;;;;;32.30;9.83;;;;;;;43.22;34.90;100767.63;6153585;23;20404;-87
2023/04/14 18:12:29;;;;;;;23.23;9.77;;;;;;;43.36;34.74;100776.22;6153143;23;20389;-87
2023/04/14 18:17:44;;;;;;;36.40;12.60;;;;;;;43.13;34.85;100770.47;6156169;23;20411;-89
2023/04/14 18:20:10;;;;;;;24.17;11.13;;;;;;;43.09;34.55;100771.50;6153831;23;20467;-89
2023/04/14 18:22:37;;;;;;;21.17;8.30;;;;;;;42.86;35.15;100769.25;6153710;23;20384;-89
2023/04/14 18:25:05;;;;;;;22.60;10.33;;;;;;;42.98;34.75;100779.41;6153268;23;20738;-90
2023/04/14 18:27:33;;;;;;;21.47;9.93;;;;;;;43.05;35.12;100789.72;6154626;23;20385;-88
2023/04/14 18:30:00;;;;;;;20.23;10.30;;;;;;;42.84;35.17;100798.00;6153654;23;20377;-91
2023/04/14 18:32:28;;;;;;;26.83;10.03;;;;;;;42.80;35.20;100808.81;6153341;23;20977;-88
2023/04/14 18:34:55;;;;;;;29.10;13.30;;;;;;;42.98;35.34;100814.03;6155285;23;20421;-93
2023/04/14 18:37:21;;;;;;;26.60;9.87;;;;;;;42.68;35.79;100819.72;6156437;23;20860;-89
2023/04/14 18:39:48;;;;;;;22.10;9.47;;;;;;;42.71;35.53;100821.75;6152279;23;20524;-88
2023/04/14 18:42:14;;;;;;;34.50;11.47;;;;;;;42.90;35.63;100821.19;6155077;23;20424;-90
2023/04/14 18:44:40;;;;;;;25.67;12.10;;;;;;;42.86;35.79;100815.63;6153310;23;20381;-92
2023/04/14 18:47:07;;;;;;;36.87;12.20;;;;;;;43.02;35.19;100823.94;6161708;23;20381;-89
2023/04/14 18:49:33;;;;;;;21.20;8.03;;;;;;;42.99;35.45;100834.75;6153018;23;20456;-89
2023/04/14 18:52:00;;;;;;;27.87;9.83;;;;;;;42.90;35.18;100835.63;6153033;23;20913;-90
2023/04/14 18:54:26;;;;;;;28.00;11.63;;;;;;;42.98;35.77;100841.34;6153095;23;20471;-90
2023/04/14 18:56:52;;;;;;;25.93;10.67;;;;;;;42.99;34.95;100841.03;6153178;23;20459;-91
2023/04/14 18:59:18;;;;;;;25.97;11.07;;;;;;;42.88;35.17;100851.56;6153638;23;20444;-91
2023/04/14 19:01:45;;;;;;;26.47;9.53;;;;;;;42.67;35.65;100855.53;6155206;23;20358;-91
2023/04/14 19:04:10;;;;;;;31.90;8.57;;;;;;;42.95;35.06;100869.28;6153088;23;20401;-90
2023/04/14 19:06:37;;;;;;;31.47;10.30;;;;;;;42.85;35.66;100871.34;6152986;23;20396;-90
2023/04/14 19:09:03;;;;;;;20.17;9.20;;;;;;;42.76;35.64;100878.84;6153238;23;20472;-90
2023/04/14 19:11:34;;;;;;;42.70;11.10;;;;;;;42.83;35.14;100878.28;6153195;23;20508;-92
2023/04/14 19:14:02;;;;;;;24.17;9.50;;;;;;;42.80;36.03;100878.97;6154936;23;20428;-93
2023/04/14 19:16:28;;;;;;;25.53;11.97;;;;;;;42.93;35.41;100900.47;6155056;23;20377;-91
2023/04/14 19:18:54;;;;;;;18.37;10.20;;;;;;;42.65;35.66;100899.50;6153555;23;20377;-90
2023/04/14 19:21:20;;;;;;;37.37;14.20;;;;;;;42.48;36.06;100886.84;6155257;23;20427;-89
2023/04/14 19:23:49;;;;;;;24.00;9.27;;;;;;;42.69;35.77;100892.25;6154402;23;20460;-89
2023/04/14 19:26:43;;;;;;;;;;;;;;;;;;;;;
2023/04/14 19:29:09;;;;;;;20.23;10.10;;;;;;;42.68;35.20;100887.13;6156506;23;20441;-91
2023/04/14 19:31:35;;;;;;;35.20;10.00;;;;;;;42.68;35.42;100904.28;6153287;23;20437;-89
2023/04/14 19:34:01;;;;;;;21.47;12.00;;;;;;;42.62;35.65;100920.09;6154593;23;20408;-90
2023/04/14 19:36:28;;;;;;;29.23;14.90;;;;;;;42.80;36.01;100928.06;6154930;23;20416;-90
2023/04/14 19:38:57;;;;;;;30.90;10.07;;;;;;;42.70;36.24;100940.22;6154984;23;20472;-91
2023/04/14 19:41:33;;;;;;;28.53;10.03;;;;;;;42.72;36.03;100940.66;6155836;23;20436;-90
2023/04/14 19:44:13;;;;;;;27.10;11.97;;;;;;;42.83;35.99;100958.19;6154374;23;20492;-89
2023/04/14 19:46:40;;;;;;;19.17;9.43;;;;;;;42.81;36.25;100954.22;6154450;23;20389;-89
2023/04/14 19:49:10;;;;;;;34.80;11.90;;;;;;;42.67;36.39;100962.72;6154449;23;20455;-90
2023/04/14 19:51:36;;;;;;;30.83;11.37;;;;;;;42.51;36.25;100970.69;6179119;23;20381;-89
2023/04/14 19:54:06;;;;;;;21.87;10.27;;;;;;;42.75;36.12;100980.91;6156026;23;20369;-89
2023/04/14 19:56:48;;;;;;;29.53;11.83;;;;;;;42.70;36.18;100977.59;6155321;23;20475;-90
2023/04/14 19:59:19;;;;;;;25.53;10.67;;;;;;;42.64;36.08;100972.34;6154174;23;20468;-89
2023/04/14 20:01:52;;;;;;;20.53;8.40;;;;;;;42.64;36.46;100986.00;6154719;23;20483;-91
2023/04/14 20:04:19;;;;;;;31.57;11.17;;;;;;;42.57;36.36;100974.03;6154132;23;20409;-90
2023/04/14 20:06:45;;;;;;;35.63;10.57;;;;;;;42.54;36.38;100980.13;6154205;23;20460;-90
2023/04/14 20:09:11;;;;;;;19.67;10.67;;;;;;;42.21;37.09;100983.63;6154107;23;20510;-90
2023/04/14 20:11:37;;;;;;;21.83;10.00;;;;;;;42.11;37.45;100968.47;6153406;23;20792;-91
2023/04/14 20:14:06;;;;;;;24.53;9.97;;;;;;;42.25;37.57;100970.94;6154264;23;20443;-92
2023/04/14 20:16:45;;;;;;;;;;;;;;;;;;;;;
2023/04/14 20:19:11;;;;;;;28.20;9.50;;;;;;;42.61;36.74;100962.13;6156181;23;20463;-92
2023/04/14 20:21:37;;;;;;;25.27;11.10;;;;;;;42.56;36.76;100958.78;6154299;23;20457;-92
2023/04/14 20:24:04;;;;;;;21.63;10.13;;;;;;;42.51;36.76;100961.72;6153959;23;20443;-92
2023/04/14 20:26:31;;;;;;;20.87;8.50;;;;;;;42.62;36.62;100961.00;6153801;23;20385;-91
2023/04/14 20:28:57;;;;;;;27.80;8.50;;;;;;;42.52;36.93;100952.41;6153393;23;20392;-90
2023/04/14 20:31:24;;;;;;;26.43;9.17;;;;;;;42.63;36.64;100956.34;6152888;23;20933;-89
2023/04/14 20:33:55;;;;;;;26.47;10.30;;;;;;;42.60;36.58;100960.56;6153956;23;20389;-89
2023/04/14 20:36:34;;;;;;;;;;;;;;;;;;;;;
2023/04/14 20:39:11;;;;;;;24.30;9.90;;;;;;;42.43;36.89;100970.78;6155843;23;20464;-91